Time;durP1;ratioP1;P1;durP2;ratioP2;P2;SDS_P1;SDS_P2;PMS_P1;PMS_P2;Temp;Humidity;BMP_temperature;BMP_pressure;BME280_temperature;BME280_humidity;BME280_pressure;Samples;Min_cycle;Max_cycle;Signal;HPM_P1;HPM_P2
2022/10/12 00:03:54;;;;;;;69.75;65.35;;;;;;;;;;10183631;28;20035;-67
2022/10/12 00:08:51;;;;;;;71.25;66.90;;;;;;;;;;10182558;28;20053;-67
2022/10/12 00:13:47;;;;;;;70.68;65.85;;;;;;;;;;10181755;28;20050;-68
2022/10/12 00:18:44;;;;;;;73.45;68.88;;;;;;;;;;10170327;28;20048;-67
2022/10/12 00:23:41;;;;;;;74.50;69.63;;;;;;;;;;10172058;28;20042;-67
2022/10/12 00:28:37;;;;;;;74.75;70.07;;;;;;;;;;10173757;28;20053;-67
2022/10/12 00:33:33;;;;;;;77.05;72.55;;;;;;;;;;10170931;28;20050;-68
2022/10/12 00:38:30;;;;;;;77.25;72.38;;;;;;;;;;10170193;28;20053;-67
2022/10/12 00:43:30;;;;;;;74.80;69.95;;;;;;;;;;10170651;28;20042;-67
2022/10/12 00:48:28;;;;;;;74.90;70.30;;;;;;;;;;10170274;28;20404;-67
2022/10/12 00:53:27;;;;;;;76.72;72.00;;;;;;;;;;10172493;28;20046;-68
2022/10/12 00:58:24;;;;;;;79.28;74.45;;;;;;;;;;10167255;28;20056;-68
2022/10/12 01:03:21;;;;;;;75.65;71.30;;;;;;;;;;10179731;28;20045;-66
2022/10/12 01:08:17;;;;;;;79.82;74.85;;;;;;;;;;10186472;28;20061;-67
2022/10/12 01:13:13;;;;;;;84.10;79.00;;;;;;;;;;10183129;28;20048;-67
2022/10/12 01:18:15;;;;;;;76.65;72.25;;;;;;;;;;10184339;28;20046;-68
2022/10/12 01:23:17;;;;;;;81.13;75.75;;;;;;;;;;10177343;28;20038;-68
2022/10/12 01:28:18;;;;;;;85.53;80.55;;;;;;;;;;10182195;28;20048;-68
2022/10/12 01:33:33;;;;;;;85.00;80.10;;;;;;;;;;10176937;28;20041;-69
2022/10/12 01:38:32;;;;;;;86.15;81.07;;;;;;;;;;10176415;28;20038;-68
2022/10/12 01:43:38;;;;;;;87.50;82.60;;;;;;;;;;10176190;28;20046;-68
2022/10/12 01:48:35;;;;;;;90.85;85.63;;;;;;;;;;10182332;28;20064;-68
2022/10/12 01:53:31;;;;;;;89.47;84.55;;;;;;;;;;10180647;28;20420;-68
2022/10/12 01:58:30;;;;;;;93.45;88.15;;;;;;;;;;10187369;28;20046;-67
2022/10/12 02:03:41;;;;;;;89.32;84.18;;;;;;;;;;10190417;28;20049;-67
2022/10/12 02:08:53;;;;;;;94.85;88.80;;;;;;;;;;10174669;28;20061;-69
2022/10/12 02:13:55;;;;;;;89.97;84.65;;;;;;;;;;10177726;28;20096;-69
2022/10/12 02:18:53;;;;;;;95.88;90.15;;;;;;;;;;10175704;28;20049;-68
2022/10/12 02:23:49;;;;;;;98.03;92.45;;;;;;;;;;10177744;28;20518;-69
2022/10/12 02:28:46;;;;;;;99.68;94.03;;;;;;;;;;10177977;28;20048;-68
2022/10/12 02:33:50;;;;;;;102.75;97.20;;;;;;;;;;10184347;28;20050;-69
2022/10/12 02:38:51;;;;;;;96.95;91.22;;;;;;;;;;10182932;28;20492;-69
2022/10/12 02:43:49;;;;;;;98.85;92.97;;;;;;;;;;10182561;28;20052;-69
2022/10/12 02:48:47;;;;;;;97.63;92.18;;;;;;;;;;10177757;28;20054;-69
2022/10/12 02:53:44;;;;;;;105.05;99.03;;;;;;;;;;10171889;28;20050;-69
2022/10/12 02:58:42;;;;;;;98.18;92.70;;;;;;;;;;10175888;28;20054;-68
2022/10/12 03:03:39;;;;;;;106.32;100.22;;;;;;;;;;10169916;28;20050;-68
2022/10/12 03:08:35;;;;;;;101.70;96.32;;;;;;;;;;10181682;28;20056;-69
2022/10/12 03:13:31;;;;;;;104.05;98.38;;;;;;;;;;10174148;28;20041;-70
2022/10/12 03:18:28;;;;;;;104.95;99.22;;;;;;;;;;10181240;28;20056;-70
2022/10/12 03:23:24;;;;;;;110.80;104.72;;;;;;;;;;10179078;28;20080;-69
2022/10/12 03:28:20;;;;;;;106.28;99.93;;;;;;;;;;10173029;28;20411;-69
2022/10/12 03:33:17;;;;;;;109.80;103.55;;;;;;;;;;10166626;28;20046;-69
2022/10/12 03:38:15;;;;;;;108.32;102.03;;;;;;;;;;10180904;28;20228;-68
2022/10/12 03:43:11;;;;;;;106.63;100.60;;;;;;;;;;10174995;28;20042;-69
2022/10/12 03:48:08;;;;;;;103.50;97.50;;;;;;;;;;10175832;28;20057;-69
2022/10/12 03:53:05;;;;;;;105.43;99.53;;;;;;;;;;10173721;28;20053;-69
2022/10/12 03:58:01;;;;;;;102.60;96.78;;;;;;;;;;10178579;28;20038;-70
2022/10/12 04:02:57;;;;;;;104.30;98.45;;;;;;;;;;10184870;28;20053;-69
2022/10/12 04:07:54;;;;;;;105.50;99.57;;;;;;;;;;10188069;28;20050;-69
2022/10/12 04:12:50;;;;;;;111.38;104.68;;;;;;;;;;10180955;28;20042;-69
2022/10/12 04:17:47;;;;;;;108.13;101.68;;;;;;;;;;10180399;28;20042;-70
2022/10/12 04:22:43;;;;;;;105.20;99.00;;;;;;;;;;10173459;28;20419;-69
2022/10/12 04:27:39;;;;;;;106.68;100.88;;;;;;;;;;10177425;28;20045;-71
2022/10/12 04:32:36;;;;;;;103.50;97.18;;;;;;;;;;10169416;28;20133;-70
2022/10/12 04:37:32;;;;;;;99.60;93.75;;;;;;;;;;10177532;28;20584;-70
2022/10/12 04:42:29;;;;;;;102.72;97.00;;;;;;;;;;10182475;28;20496;-69
2022/10/12 04:47:25;;;;;;;100.85;94.55;;;;;;;;;;10184404;28;20103;-70
2022/10/12 04:52:21;;;;;;;107.80;101.10;;;;;;;;;;10168507;28;20042;-69
2022/10/12 04:57:18;;;;;;;105.10;98.55;;;;;;;;;;10180428;28;20042;-69
2022/10/12 05:02:14;;;;;;;104.50;98.60;;;;;;;;;;10181932;28;20046;-70
2022/10/12 05:07:11;;;;;;;109.93;103.15;;;;;;;;;;10184229;28;20068;-69
2022/10/12 05:12:07;;;;;;;105.53;99.05;;;;;;;;;;10181168;28;20046;-69
2022/10/12 05:17:03;;;;;;;107.45;101.10;;;;;;;;;;10179394;28;20056;-70
2022/10/12 05:22:00;;;;;;;108.07;101.47;;;;;;;;;;10183790;28;20048;-69
2022/10/12 05:26:56;;;;;;;103.47;97.40;;;;;;;;;;10183706;28;20050;-69
2022/10/12 05:31:52;;;;;;;103.95;97.50;;;;;;;;;;10172319;28;20293;-69
2022/10/12 05:36:49;;;;;;;108.78;102.22;;;;;;;;;;10175299;28;20057;-69
2022/10/12 05:41:45;;;;;;;108.28;101.38;;;;;;;;;;10191125;28;20061;-69
2022/10/12 05:46:42;;;;;;;108.72;102.13;;;;;;;;;;10181981;28;20049;-69
2022/10/12 05:51:39;;;;;;;108.78;102.40;;;;;;;;;;10180485;28;20057;-69
2022/10/12 05:56:35;;;;;;;108.68;102.05;;;;;;;;;;10179384;28;20053;-69
2022/10/12 06:01:32;;;;;;;109.82;103.22;;;;;;;;;;10177483;28;20511;-69
2022/10/12 06:06:28;;;;;;;106.75;100.50;;;;;;;;;;10175171;28;20052;-70
2022/10/12 06:11:24;;;;;;;107.20;100.57;;;;;;;;;;10178143;28;20046;-70
2022/10/12 06:16:21;;;;;;;107.68;101.45;;;;;;;;;;10174855;28;20045;-70
2022/10/12 06:21:18;;;;;;;107.28;100.63;;;;;;;;;;10175471;28;20046;-70
2022/10/12 06:26:29;;;;;;;108.20;101.68;;;;;;;;;;10172784;28;21535;-69
2022/10/12 06:31:26;;;;;;;107.80;101.68;;;;;;;;;;10181537;28;20045;-70
2022/10/12 06:36:22;;;;;;;110.90;104.22;;;;;;;;;;10174729;28;20481;-70
2022/10/12 06:41:19;;;;;;;108.07;101.65;;;;;;;;;;10161966;28;20574;-70
2022/10/12 06:46:15;;;;;;;113.15;106.45;;;;;;;;;;10172482;28;20064;-70
2022/10/12 06:51:12;;;;;;;107.53;101.32;;;;;;;;;;10178271;28;20054;-69
2022/10/12 06:56:08;;;;;;;110.55;103.53;;;;;;;;;;10182178;28;20046;-69
2022/10/12 07:01:06;;;;;;;113.30;106.47;;;;;;;;;;10181237;28;20133;-70
2022/10/12 07:06:06;;;;;;;118.72;111.30;;;;;;;;;;10180400;28;20043;-69
2022/10/12 07:11:04;;;;;;;114.45;107.70;;;;;;;;;;10177723;28;20054;-70
2022/10/12 07:16:00;;;;;;;112.75;106.00;;;;;;;;;;10173901;28;20530;-69
2022/10/12 07:20:58;;;;;;;111.28;104.38;;;;;;;;;;10171241;28;20050;-70
2022/10/12 07:25:54;;;;;;;112.22;105.68;;;;;;;;;;10182217;28;20052;-69
2022/10/12 07:30:51;;;;;;;115.43;108.55;;;;;;;;;;10178566;28;20042;-70
2022/10/12 07:35:54;;;;;;;120.82;113.40;;;;;;;;;;10179135;28;20056;-70
2022/10/12 07:41:08;;;;;;;128.45;120.25;;;;;;;;;;10171394;28;20120;-70
2022/10/12 07:46:05;;;;;;;131.68;123.90;;;;;;;;;;10175250;28;20056;-70
2022/10/12 07:51:02;;;;;;;129.23;121.75;;;;;;;;;;10179688;28;20735;-70
2022/10/12 07:55:59;;;;;;;127.60;119.93;;;;;;;;;;10175406;28;20054;-70
2022/10/12 08:00:56;;;;;;;124.40;117.53;;;;;;;;;;10178089;28;20513;-70
2022/10/12 08:05:52;;;;;;;123.03;116.22;;;;;;;;;;10174571;28;20060;-70
2022/10/12 08:10:48;;;;;;;123.07;114.97;;;;;;;;;;10182958;28;21782;-70
2022/10/12 08:15:51;;;;;;;118.80;111.90;;;;;;;;;;10180189;28;20060;-70
2022/10/12 08:20:47;;;;;;;113.15;106.93;;;;;;;;;;10177243;28;20404;-70
2022/10/12 08:25:50;;;;;;;90.78;85.80;;;;;;;;;;10188162;28;20408;-70
2022/10/12 08:30:46;;;;;;;83.15;78.07;;;;;;;;;;10184358;28;20424;-70
2022/10/12 08:35:44;;;;;;;62.80;59.03;;;;;;;;;;10182075;28;20042;-70
2022/10/12 08:41:06;;;;;;;30.88;28.52;;;;;;;;;;10185007;28;20499;-70
2022/10/12 08:46:03;;;;;;;21.30;19.17;;;;;;;;;;10165680;28;20076;-70
2022/10/12 08:51:05;;;;;;;19.33;16.02;;;;;;;;;;10184401;28;20389;-71
2022/10/12 08:56:02;;;;;;;17.92;15.07;;;;;;;;;;10184222;28;20048;-70
2022/10/12 09:01:04;;;;;;;17.67;14.23;;;;;;;;;;10183761;28;20050;-70
2022/10/12 09:06:10;;;;;;;19.50;14.73;;;;;;;;;;10184865;28;20133;-70
2022/10/12 09:11:09;;;;;;;17.83;13.32;;;;;;;;;;10180705;28;20058;-70
2022/10/12 09:16:10;;;;;;;18.00;12.80;;;;;;;;;;10180307;28;20439;-70
2022/10/12 09:21:15;;;;;;;15.20;12.80;;;;;;;;;;10176696;28;20045;-70
2022/10/12 09:26:19;;;;;;;15.43;11.88;;;;;;;;;;10182396;28;20062;-69
2022/10/12 09:31:48;;;;;;;12.43;11.00;;;;;;;;;;10183484;28;20042;-70
2022/10/12 09:36:45;;;;;;;24.27;12.25;;;;;;;;;;10174171;28;20504;-69
2022/10/12 09:41:42;;;;;;;12.98;10.50;;;;;;;;;;10183286;28;20508;-70
2022/10/12 09:46:48;;;;;;;13.18;10.68;;;;;;;;;;10184061;28;20046;-70
2022/10/12 09:51:45;;;;;;;18.77;10.50;;;;;;;;;;10184636;28;20045;-70
2022/10/12 09:56:45;;;;;;;17.30;10.20;;;;;;;;;;10182894;28;20052;-69
2022/10/12 10:01:55;;;;;;;15.45;9.50;;;;;;;;;;10175820;28;20053;-70
2022/10/12 10:06:51;;;;;;;10.95;9.10;;;;;;;;;;10176132;28;20054;-70
2022/10/12 10:11:48;;;;;;;15.65;9.18;;;;;;;;;;10179563;28;20179;-69
2022/10/12 10:16:48;;;;;;;14.65;8.75;;;;;;;;;;10172732;28;20046;-69
2022/10/12 10:21:45;;;;;;;12.93;10.73;;;;;;;;;;10173537;28;20050;-70
2022/10/12 10:26:55;;;;;;;14.40;10.18;;;;;;;;;;10170447;28;20045;-70
2022/10/12 10:32:10;;;;;;;11.35;9.80;;;;;;;;;;10177767;28;20058;-70
2022/10/12 10:37:12;;;;;;;13.27;10.00;;;;;;;;;;10178632;28;20664;-70
2022/10/12 10:42:16;;;;;;;11.70;8.45;;;;;;;;;;10182957;28;20076;-69
2022/10/12 10:47:12;;;;;;;14.65;9.02;;;;;;;;;;10173210;28;20049;-69
2022/10/12 10:52:38;;;;;;;12.93;8.57;;;;;;;;;;10177757;28;20077;-70
2022/10/12 10:57:35;;;;;;;11.57;9.30;;;;;;;;;;10173103;28;20045;-70
2022/10/12 11:02:31;;;;;;;13.77;8.68;;;;;;;;;;10173925;28;20079;-70
2022/10/12 11:07:43;;;;;;;12.60;8.00;;;;;;;;;;10178019;28;20042;-70
2022/10/12 11:12:45;;;;;;;19.15;8.23;;;;;;;;;;10178981;28;20052;-70
2022/10/12 11:17:44;;;;;;;12.52;8.48;;;;;;;;;;10178260;28;20041;-70
2022/10/12 11:22:56;;;;;;;11.00;7.53;;;;;;;;;;10187457;28;20038;-70
2022/10/12 11:27:53;;;;;;;10.00;7.10;;;;;;;;;;10183830;28;20504;-70
2022/10/12 11:32:54;;;;;;;9.95;6.80;;;;;;;;;;10173221;28;20052;-70
2022/10/12 11:37:52;;;;;;;13.75;7.82;;;;;;;;;;10182831;28;20042;-71
2022/10/12 11:42:50;;;;;;;12.70;8.18;;;;;;;;;;10180328;28;20500;-70
2022/10/12 11:47:48;;;;;;;8.98;6.80;;;;;;;;;;10179551;28;20042;-70
2022/10/12 11:52:47;;;;;;;13.10;7.53;;;;;;;;;;10183443;28;20048;-70
2022/10/12 11:57:43;;;;;;;8.98;7.10;;;;;;;;;;10177915;28;20423;-70
2022/10/12 12:02:41;;;;;;;12.27;6.82;;;;;;;;;;10185241;28;20055;-70
2022/10/12 12:07:40;;;;;;;10.73;6.50;;;;;;;;;;10180764;28;20037;-70
2022/10/12 12:12:56;;;;;;;8.77;7.15;;;;;;;;;;10183029;28;20041;-70
2022/10/12 12:18:11;;;;;;;9.40;7.00;;;;;;;;;;10182885;28;20049;-70
2022/10/12 12:23:18;;;;;;;7.15;6.55;;;;;;;;;;10176600;28;20050;-70
2022/10/12 12:28:18;;;;;;;10.18;6.53;;;;;;;;;;10181278;28;20057;-70
2022/10/12 12:33:16;;;;;;;9.10;7.45;;;;;;;;;;10174598;28;20120;-70
2022/10/12 12:38:12;;;;;;;9.55;6.90;;;;;;;;;;10171630;28;20042;-70
2022/10/12 12:43:27;;;;;;;9.70;7.30;;;;;;;;;;10173138;28;20805;-70
2022/10/12 12:48:42;;;;;;;10.48;7.13;;;;;;;;;;10179840;28;20046;-70
2022/10/12 12:53:47;;;;;;;11.05;7.07;;;;;;;;;;10178645;28;20046;-70
2022/10/12 12:58:49;;;;;;;14.65;9.07;;;;;;;;;;10184419;28;20048;-70
2022/10/12 13:03:49;;;;;;;10.07;6.65;;;;;;;;;;10188521;28;20045;-70
2022/10/12 13:08:51;;;;;;;9.75;6.85;;;;;;;;;;10186856;28;20053;-70
2022/10/12 13:13:53;;;;;;;12.32;6.65;;;;;;;;;;10189509;28;20136;-70
2022/10/12 13:19:01;;;;;;;8.45;6.30;;;;;;;;;;10179223;28;20050;-70
2022/10/12 13:24:10;;;;;;;8.48;6.30;;;;;;;;;;10188299;28;20038;-70
2022/10/12 13:29:13;;;;;;;10.05;6.35;;;;;;;;;;10180718;28;20819;-71
2022/10/12 13:34:16;;;;;;;9.18;6.28;;;;;;;;;;10186717;28;20056;-70
2022/10/12 13:39:16;;;;;;;12.13;6.63;;;;;;;;;;10179745;28;20210;-70
2022/10/12 13:44:21;;;;;;;11.90;6.75;;;;;;;;;;10184205;28;20045;-70
2022/10/12 13:49:19;;;;;;;10.38;7.10;;;;;;;;;;10187917;28;20052;-70
2022/10/12 13:54:17;;;;;;;9.15;7.18;;;;;;;;;;10173630;28;21667;-70
2022/10/12 13:59:16;;;;;;;8.55;7.47;;;;;;;;;;10182574;28;20520;-70
2022/10/12 14:04:14;;;;;;;8.32;7.05;;;;;;;;;;10177712;28;20034;-69
2022/10/12 14:09:13;;;;;;;9.75;6.28;;;;;;;;;;10179205;28;20084;-69
2022/10/12 14:14:17;;;;;;;7.60;6.78;;;;;;;;;;10182122;28;20050;-69
2022/10/12 14:19:18;;;;;;;7.03;6.13;;;;;;;;;;10182190;28;20472;-69
2022/10/12 14:24:16;;;;;;;11.77;7.07;;;;;;;;;;10183735;28;20053;-69
2022/10/12 14:29:32;;;;;;;14.63;6.82;;;;;;;;;;10185059;28;20073;-69
2022/10/12 14:34:32;;;;;;;9.43;6.43;;;;;;;;;;10186228;28;20412;-69
2022/10/12 14:39:29;;;;;;;6.53;5.80;;;;;;;;;;10177395;28;20631;-68
2022/10/12 14:44:28;;;;;;;12.05;7.10;;;;;;;;;;10182695;28;20048;-69
2022/10/12 14:49:25;;;;;;;8.18;7.20;;;;;;;;;;10180076;28;20511;-69
2022/10/12 14:54:21;;;;;;;6.80;6.18;;;;;;;;;;10180614;28;20058;-69
2022/10/12 14:59:18;;;;;;;9.15;6.35;;;;;;;;;;10161744;28;20053;-69
2022/10/12 15:04:14;;;;;;;6.93;6.22;;;;;;;;;;10169265;28;20510;-68
2022/10/12 15:09:10;;;;;;;9.80;6.95;;;;;;;;;;10146369;28;20050;-69
2022/10/12 15:14:08;;;;;;;10.38;6.50;;;;;;;;;;10162522;28;20064;-68
2022/10/12 15:19:04;;;;;;;8.48;6.45;;;;;;;;;;10175266;28;20401;-68
2022/10/12 15:24:01;;;;;;;13.35;7.13;;;;;;;;;;10176914;28;20129;-69
2022/10/12 15:28:57;;;;;;;10.05;6.05;;;;;;;;;;10177425;28;20057;-69
2022/10/12 15:33:53;;;;;;;12.20;6.65;;;;;;;;;;10171436;28;20060;-69
2022/10/12 15:38:50;;;;;;;6.88;5.85;;;;;;;;;;10175607;28;20042;-69
2022/10/12 15:43:46;;;;;;;12.65;7.10;;;;;;;;;;10173219;28;20086;-69
2022/10/12 15:48:42;;;;;;;9.95;7.03;;;;;;;;;;10167972;28;20508;-69
2022/10/12 15:53:39;;;;;;;11.82;7.10;;;;;;;;;;10172735;28;20115;-69
2022/10/12 15:58:35;;;;;;;14.63;7.75;;;;;;;;;;10175394;28;20053;-67
2022/10/12 16:03:32;;;;;;;10.85;7.90;;;;;;;;;;10173407;28;20041;-68
2022/10/12 16:08:28;;;;;;;8.40;7.15;;;;;;;;;;10178227;28;20042;-69
2022/10/12 16:13:24;;;;;;;9.48;7.40;;;;;;;;;;10179387;28;20042;-69
2022/10/12 16:18:20;;;;;;;10.40;7.65;;;;;;;;;;10179812;28;20038;-69
2022/10/12 16:23:18;;;;;;;10.93;7.78;;;;;;;;;;10169834;28;20056;-69
2022/10/12 16:28:14;;;;;;;13.38;8.20;;;;;;;;;;10168381;28;20057;-69
2022/10/12 16:33:10;;;;;;;10.88;7.50;;;;;;;;;;10175377;28;20053;-68
2022/10/12 16:38:10;;;;;;;9.88;7.82;;;;;;;;;;10179552;28;20500;-69
2022/10/12 16:43:07;;;;;;;11.38;8.07;;;;;;;;;;10169637;28;20054;-70
2022/10/12 16:48:03;;;;;;;9.60;8.57;;;;;;;;;;10158240;28;20065;-70
2022/10/12 16:52:59;;;;;;;10.15;8.48;;;;;;;;;;10162496;28;20065;-69
2022/10/12 16:57:56;;;;;;;13.40;8.40;;;;;;;;;;10174002;28;20046;-68
2022/10/12 17:02:52;;;;;;;10.25;8.90;;;;;;;;;;10148676;28;20636;-69
2022/10/12 17:07:52;;;;;;;12.20;9.07;;;;;;;;;;10168621;28;20423;-69
2022/10/12 17:12:50;;;;;;;10.98;9.70;;;;;;;;;;10160600;28;20049;-69
2022/10/12 17:17:46;;;;;;;10.93;9.35;;;;;;;;;;10167529;28;20534;-69
2022/10/12 17:22:42;;;;;;;12.85;11.07;;;;;;;;;;10167306;28;20050;-69
2022/10/12 17:27:39;;;;;;;14.65;11.00;;;;;;;;;;10172580;28;20053;-69
2022/10/12 17:32:36;;;;;;;12.25;10.90;;;;;;;;;;10171804;28;20080;-69
2022/10/12 17:37:33;;;;;;;12.30;11.13;;;;;;;;;;10167450;28;20042;-69
2022/10/12 17:42:29;;;;;;;15.40;11.63;;;;;;;;;;10168600;28;20049;-69
2022/10/12 17:47:25;;;;;;;14.02;10.85;;;;;;;;;;10166875;28;20073;-69
2022/10/12 17:52:22;;;;;;;17.35;12.57;;;;;;;;;;10169616;28;20057;-70
2022/10/12 17:57:18;;;;;;;17.88;11.90;;;;;;;;;;10194938;28;20038;-69
2022/10/12 18:02:15;;;;;;;12.80;11.63;;;;;;;;;;10184676;28;20049;-69
2022/10/12 18:07:11;;;;;;;16.95;11.55;;;;;;;;;;10170236;28;20053;-69
2022/10/12 18:12:08;;;;;;;12.73;11.52;;;;;;;;;;10164897;28;20045;-69
2022/10/12 18:17:04;;;;;;;15.35;12.60;;;;;;;;;;10162953;28;20046;-69
2022/10/12 18:22:00;;;;;;;16.35;12.13;;;;;;;;;;10173612;28;20049;-69
2022/10/12 18:26:57;;;;;;;15.73;13.23;;;;;;;;;;10173814;28;20043;-69
2022/10/12 18:31:53;;;;;;;16.02;12.50;;;;;;;;;;10172564;28;20046;-69
2022/10/12 18:36:51;;;;;;;19.00;13.60;;;;;;;;;;10174469;28;20042;-70
2022/10/12 18:41:51;;;;;;;15.55;13.07;;;;;;;;;;10167222;28;20046;-70
2022/10/12 18:46:47;;;;;;;18.90;13.82;;;;;;;;;;10158784;28;20041;-70
2022/10/12 18:51:50;;;;;;;18.40;14.98;;;;;;;;;;10170662;28;20053;-70
2022/10/12 18:56:46;;;;;;;17.65;14.07;;;;;;;;;;10175667;28;20057;-70
2022/10/12 19:01:43;;;;;;;14.77;13.50;;;;;;;;;;10182423;28;20042;-70
2022/10/12 19:06:41;;;;;;;16.13;14.35;;;;;;;;;;10183514;28;20050;-70
2022/10/12 19:11:37;;;;;;;19.58;15.55;;;;;;;;;;10178944;28;20046;-70
2022/10/12 19:16:33;;;;;;;16.63;14.88;;;;;;;;;;10181225;28;20507;-70
2022/10/12 19:21:30;;;;;;;16.52;14.82;;;;;;;;;;10174678;28;20065;-70
2022/10/12 19:26:26;;;;;;;16.20;14.45;;;;;;;;;;10177805;28;20153;-70
2022/10/12 19:31:25;;;;;;;17.30;15.43;;;;;;;;;;10174164;28;20050;-70
2022/10/12 19:36:21;;;;;;;19.98;16.35;;;;;;;;;;10174524;28;20058;-70
2022/10/12 19:41:17;;;;;;;17.95;14.38;;;;;;;;;;10172055;28;20056;-70
2022/10/12 19:46:14;;;;;;;21.40;16.80;;;;;;;;;;10165248;28;20050;-70
2022/10/12 19:51:11;;;;;;;18.13;15.77;;;;;;;;;;10176267;28;20098;-70
2022/10/12 19:56:08;;;;;;;17.48;15.70;;;;;;;;;;10172673;28;20053;-70
2022/10/12 20:01:06;;;;;;;18.83;16.45;;;;;;;;;;10181831;28;20050;-70
2022/10/12 20:06:06;;;;;;;17.90;15.98;;;;;;;;;;10176039;28;20109;-70
2022/10/12 20:11:03;;;;;;;17.98;15.93;;;;;;;;;;10178312;28;20049;-70
2022/10/12 20:15:59;;;;;;;19.40;17.38;;;;;;;;;;10172030;28;20050;-70
2022/10/12 20:20:55;;;;;;;18.17;16.33;;;;;;;;;;10151731;28;20050;-70
2022/10/12 20:25:52;;;;;;;22.10;19.00;;;;;;;;;;10177273;28;20508;-70
2022/10/12 20:30:49;;;;;;;18.90;16.30;;;;;;;;;;10174996;28;20065;-69
2022/10/12 20:35:48;;;;;;;19.30;16.52;;;;;;;;;;10183013;28;20045;-69
2022/10/12 20:40:47;;;;;;;20.17;16.38;;;;;;;;;;10181123;28;20061;-67
2022/10/12 20:45:44;;;;;;;20.38;18.67;;;;;;;;;;10176781;28;20042;-67
2022/10/12 20:50:40;;;;;;;18.65;16.75;;;;;;;;;;10177709;28;20061;-67
2022/10/12 20:55:38;;;;;;;18.83;17.08;;;;;;;;;;10178758;28;20056;-67
2022/10/12 21:00:34;;;;;;;17.52;15.90;;;;;;;;;;10170691;28;20050;-66
2022/10/12 21:05:33;;;;;;;22.23;17.95;;;;;;;;;;10177906;28;20046;-67
2022/10/12 21:10:29;;;;;;;19.02;16.48;;;;;;;;;;10176571;28;20052;-67
2022/10/12 21:15:25;;;;;;;18.73;17.13;;;;;;;;;;10186033;28;20045;-68
2022/10/12 21:20:21;;;;;;;22.10;19.75;;;;;;;;;;10179400;28;20634;-67
2022/10/12 21:25:18;;;;;;;19.20;17.25;;;;;;;;;;10177573;28;20061;-67
2022/10/12 21:30:14;;;;;;;18.38;16.80;;;;;;;;;;10180774;28;20046;-67
2022/10/12 21:35:11;;;;;;;18.13;16.52;;;;;;;;;;10182616;28;20054;-67
2022/10/12 21:40:07;;;;;;;18.70;16.75;;;;;;;;;;10186961;28;20051;-67
2022/10/12 21:45:04;;;;;;;19.85;18.00;;;;;;;;;;10182983;28;20054;-67
2022/10/12 21:50:00;;;;;;;18.13;16.83;;;;;;;;;;10191857;28;20404;-67
2022/10/12 21:54:56;;;;;;;19.60;16.50;;;;;;;;;;10187963;28;20054;-67
2022/10/12 21:59:52;;;;;;;27.33;18.67;;;;;;;;;;10189546;28;20419;-66
2022/10/12 22:04:48;;;;;;;19.98;18.20;;;;;;;;;;10186110;28;20423;-66
2022/10/12 22:09:45;;;;;;;18.58;16.95;;;;;;;;;;10186835;28;20633;-67
2022/10/12 22:14:41;;;;;;;19.48;17.75;;;;;;;;;;10187234;28;20138;-67
2022/10/12 22:19:37;;;;;;;19.13;17.20;;;;;;;;;;10185050;28;20038;-67
2022/10/12 22:24:34;;;;;;;18.60;16.90;;;;;;;;;;10181084;28;20050;-67
2022/10/12 22:29:30;;;;;;;19.55;17.48;;;;;;;;;;10179426;28;20042;-67
2022/10/12 22:34:27;;;;;;;23.08;17.20;;;;;;;;;;10180702;28;20512;-67
2022/10/12 22:39:23;;;;;;;17.42;15.63;;;;;;;;;;10190063;28;20046;-67
2022/10/12 22:44:20;;;;;;;16.50;15.18;;;;;;;;;;10187899;28;20048;-67
2022/10/12 22:49:16;;;;;;;17.20;15.50;;;;;;;;;;10183598;28;20504;-67
2022/10/12 22:54:12;;;;;;;17.45;15.65;;;;;;;;;;10186740;28;20042;-67
2022/10/12 22:59:13;;;;;;;17.40;14.50;;;;;;;;;;10182981;28;20049;-66
2022/10/12 23:04:09;;;;;;;16.67;14.85;;;;;;;;;;10187292;28;20091;-67
2022/10/12 23:09:05;;;;;;;16.45;14.90;;;;;;;;;;10187860;28;20623;-67
2022/10/12 23:14:02;;;;;;;16.35;14.82;;;;;;;;;;10184021;28;20048;-67
2022/10/12 23:18:59;;;;;;;16.08;14.52;;;;;;;;;;10179940;28;20042;-67
2022/10/12 23:23:56;;;;;;;17.85;13.90;;;;;;;;;;10182495;28;20125;-67
2022/10/12 23:28:53;;;;;;;14.05;12.75;;;;;;;;;;10185458;28;20057;-67
2022/10/12 23:33:53;;;;;;;14.82;13.15;;;;;;;;;;10188821;28;20137;-67
2022/10/12 23:38:49;;;;;;;12.70;11.40;;;;;;;;;;10175358;28;20053;-67
2022/10/12 23:43:46;;;;;;;14.25;12.15;;;;;;;;;;10179545;28;20060;-68
2022/10/12 23:48:42;;;;;;;15.43;11.15;;;;;;;;;;10178120;28;20056;-67
2022/10/12 23:53:38;;;;;;;13.07;11.90;;;;;;;;;;10182310;28;20041;-68
2022/10/12 23:58:35;;;;;;;17.77;12.20;;;;;;;;;;10172959;28;20053;-66
